Time;durP1;ratioP1;P1;durP2;ratioP2;P2;SDS_P1;SDS_P2;PMS_P1;PMS_P2;Temp;Humidity;BMP_temperature;BMP_pressure;BME280_temperature;BME280_humidity;BME280_pressure;Samples;Min_cycle;Max_cycle;Signal;HPM_P1;HPM_P2
2021/06/09 00:00:37;;;;;;;6.68;5.35;;;;;;;;;;5009272;28;20030;-71
2021/06/09 00:03:03;;;;;;;6.22;5.63;;;;;;;;;;5013091;28;20033;-73
2021/06/09 00:05:29;;;;;;;7.70;6.20;;;;;;;;;;5011101;28;20393;-73
2021/06/09 00:07:55;;;;;;;8.10;5.95;;;;;;;;;;5011501;28;20156;-72
2021/06/09 00:10:21;;;;;;;6.53;5.93;;;;;;;;;;5008824;28;20373;-72
2021/06/09 00:12:47;;;;;;;7.68;6.30;;;;;;;;;;5011732;28;20033;-72
2021/06/09 00:15:14;;;;;;;6.53;6.03;;;;;;;;;;5009770;28;20048;-72
2021/06/09 00:17:41;;;;;;;8.13;6.45;;;;;;;;;;5011710;28;20034;-70
2021/06/09 00:20:09;;;;;;;9.75;6.43;;;;;;;;;;5010976;28;20029;-69
2021/06/09 00:22:36;;;;;;;10.38;5.88;;;;;;;;;;5011005;28;20504;-70
2021/06/09 00:25:02;;;;;;;7.10;6.40;;;;;;;;;;5009700;28;20041;-70
2021/06/09 00:27:28;;;;;;;8.05;5.78;;;;;;;;;;5009203;28;20113;-71
2021/06/09 00:29:54;;;;;;;6.43;5.88;;;;;;;;;;5008555;28;20029;-70
2021/06/09 00:32:20;;;;;;;8.02;5.60;;;;;;;;;;5012633;28;20033;-71
2021/06/09 00:34:46;;;;;;;6.72;6.03;;;;;;;;;;5012230;28;20056;-71
2021/06/09 00:37:12;;;;;;;7.13;6.43;;;;;;;;;;5009858;28;20045;-70
2021/06/09 00:39:38;;;;;;;10.27;5.95;;;;;;;;;;5007038;28;20131;-69
2021/06/09 00:42:04;;;;;;;8.07;6.60;;;;;;;;;;5008655;28;20037;-71
2021/06/09 00:44:31;;;;;;;8.55;7.38;;;;;;;;;;5007875;28;20074;-70
2021/06/09 00:46:57;;;;;;;6.60;6.00;;;;;;;;;;5008578;28;20044;-70
2021/06/09 00:49:23;;;;;;;8.25;6.00;;;;;;;;;;5009379;28;20034;-70
2021/06/09 00:51:50;;;;;;;6.80;6.07;;;;;;;;;;5009513;28;20108;-71
2021/06/09 00:54:16;;;;;;;6.20;5.70;;;;;;;;;;5009538;28;20033;-67
2021/06/09 00:56:42;;;;;;;6.32;5.70;;;;;;;;;;5007636;28;20113;-68
2021/06/09 00:59:08;;;;;;;7.18;6.20;;;;;;;;;;5008826;28;20033;-68
2021/06/09 01:01:34;;;;;;;6.72;5.78;;;;;;;;;;5007626;28;20276;-68
2021/06/09 01:04:00;;;;;;;7.93;6.00;;;;;;;;;;5008624;28;20108;-67
2021/06/09 01:06:26;;;;;;;8.60;7.00;;;;;;;;;;5012508;28;20053;-68
2021/06/09 01:08:54;;;;;;;9.52;8.63;;;;;;;;;;5006575;28;20451;-68
2021/06/09 01:11:21;;;;;;;9.60;8.02;;;;;;;;;;5008344;28;20540;-67
2021/06/09 01:13:47;;;;;;;10.60;7.25;;;;;;;;;;5006941;28;20033;-68
2021/06/09 01:16:14;;;;;;;8.38;7.57;;;;;;;;;;5008669;28;20022;-68
2021/06/09 01:18:40;;;;;;;8.82;6.18;;;;;;;;;;5006874;28;20045;-67
2021/06/09 01:21:06;;;;;;;6.80;6.15;;;;;;;;;;5005646;28;20034;-68
2021/06/09 01:23:33;;;;;;;7.88;7.03;;;;;;;;;;5003499;28;20789;-67
2021/06/09 01:26:00;;;;;;;7.47;6.75;;;;;;;;;;5004028;28;20026;-68
2021/06/09 01:28:27;;;;;;;7.57;6.28;;;;;;;;;;5006940;28;20038;-68
2021/06/09 01:30:53;;;;;;;6.70;6.10;;;;;;;;;;5008092;28;20022;-72
2021/06/09 01:33:20;;;;;;;10.48;7.00;;;;;;;;;;5006600;28;20033;-69
2021/06/09 01:35:49;;;;;;;8.23;6.65;;;;;;;;;;5009612;28;20210;-70
2021/06/09 01:38:15;;;;;;;6.88;6.15;;;;;;;;;;5008354;28;20038;-70
2021/06/09 01:40:41;;;;;;;13.68;6.28;;;;;;;;;;5009066;28;20059;-70
2021/06/09 01:43:08;;;;;;;11.90;6.90;;;;;;;;;;5011067;28;20038;-69
2021/06/09 01:45:35;;;;;;;6.90;6.25;;;;;;;;;;5007302;28;20036;-69
2021/06/09 01:48:01;;;;;;;9.88;7.18;;;;;;;;;;5006781;28;20040;-70
2021/06/09 01:50:28;;;;;;;7.40;6.60;;;;;;;;;;5007729;28;20448;-70
2021/06/09 01:52:54;;;;;;;7.20;6.50;;;;;;;;;;5011748;28;20739;-69
2021/06/09 01:55:22;;;;;;;7.07;6.32;;;;;;;;;;5009529;28;20083;-69
2021/06/09 01:57:49;;;;;;;8.75;6.22;;;;;;;;;;5010704;28;20204;-68
2021/06/09 02:00:17;;;;;;;7.30;6.70;;;;;;;;;;5012182;28;20452;-70
2021/06/09 02:02:43;;;;;;;7.40;6.32;;;;;;;;;;5010048;28;20026;-69
2021/06/09 02:05:10;;;;;;;7.15;5.93;;;;;;;;;;5010677;28;20030;-68
2021/06/09 02:07:40;;;;;;;9.57;6.53;;;;;;;;;;5009885;28;20053;-69
2021/06/09 02:10:13;;;;;;;7.45;6.75;;;;;;;;;;5012430;28;20022;-69
2021/06/09 02:12:40;;;;;;;6.95;6.15;;;;;;;;;;5011192;28;20033;-69
2021/06/09 02:15:07;;;;;;;7.90;6.38;;;;;;;;;;5010749;28;20036;-69
2021/06/09 02:17:34;;;;;;;7.40;6.10;;;;;;;;;;5010022;28;20487;-69
2021/06/09 02:20:00;;;;;;;7.72;6.97;;;;;;;;;;5011552;28;20034;-68
2021/06/09 02:22:27;;;;;;;6.88;6.20;;;;;;;;;;5011015;28;20376;-69
2021/06/09 02:24:53;;;;;;;7.20;6.60;;;;;;;;;;5011632;28;20029;-68
2021/06/09 02:27:19;;;;;;;7.18;6.45;;;;;;;;;;5009959;28;20472;-68
2021/06/09 02:29:46;;;;;;;7.20;6.50;;;;;;;;;;5008801;28;20022;-68
2021/06/09 02:32:16;;;;;;;7.13;6.53;;;;;;;;;;5012002;28;20392;-68
2021/06/09 02:34:43;;;;;;;6.97;6.25;;;;;;;;;;5011078;28;20029;-69
2021/06/09 02:37:09;;;;;;;8.25;6.72;;;;;;;;;;5011838;28;20037;-69
2021/06/09 02:39:35;;;;;;;8.30;6.20;;;;;;;;;;5011632;28;20029;-68
2021/06/09 02:42:01;;;;;;;7.13;6.53;;;;;;;;;;5009375;28;20091;-68
2021/06/09 02:44:27;;;;;;;9.60;6.53;;;;;;;;;;5010785;28;20030;-69
2021/06/09 02:46:55;;;;;;;7.53;6.70;;;;;;;;;;5007561;28;20030;-69
2021/06/09 02:49:22;;;;;;;7.35;6.68;;;;;;;;;;5009665;28;20096;-69
2021/06/09 02:51:53;;;;;;;8.35;6.45;;;;;;;;;;5007058;28;20050;-69
2021/06/09 02:54:39;;;;;;;7.25;6.55;;;;;;;;;;5009684;28;20026;-69
2021/06/09 02:57:19;;;;;;;8.20;6.93;;;;;;;;;;5008264;28;20108;-72
2021/06/09 02:59:56;;;;;;;12.23;7.03;;;;;;;;;;5011694;28;20026;-72
2021/06/09 03:02:25;;;;;;;8.77;6.55;;;;;;;;;;5010649;28;20086;-72
2021/06/09 03:04:53;;;;;;;8.27;7.57;;;;;;;;;;5011155;28;20059;-67
2021/06/09 03:07:25;;;;;;;6.88;6.18;;;;;;;;;;5009741;28;20128;-68
2021/06/09 03:09:57;;;;;;;11.80;6.72;;;;;;;;;;5010907;28;20392;-67
2021/06/09 03:12:38;;;;;;;9.52;6.93;;;;;;;;;;5009036;28;20092;-67
2021/06/09 03:15:14;;;;;;;10.68;6.88;;;;;;;;;;5010879;28;20415;-67
2021/06/09 03:17:46;;;;;;;10.98;7.18;;;;;;;;;;5007304;28;20091;-67
2021/06/09 03:20:18;;;;;;;11.57;8.13;;;;;;;;;;5008804;28;20108;-66
2021/06/09 03:22:59;;;;;;;12.50;7.65;;;;;;;;;;5007774;28;20040;-67
2021/06/09 03:25:29;;;;;;;9.13;7.90;;;;;;;;;;5007184;28;20116;-68
2021/06/09 03:28:03;;;;;;;8.55;6.88;;;;;;;;;;5007977;28;20108;-68
2021/06/09 03:30:31;;;;;;;8.57;7.78;;;;;;;;;;5011222;28;20025;-67
2021/06/09 03:32:59;;;;;;;8.70;7.72;;;;;;;;;;5009370;28;20025;-67
2021/06/09 03:35:31;;;;;;;9.75;7.40;;;;;;;;;;5008232;28;20072;-68
2021/06/09 03:38:00;;;;;;;8.77;8.02;;;;;;;;;;5006527;28;20042;-71
2021/06/09 03:40:29;;;;;;;8.50;7.70;;;;;;;;;;5013733;28;20560;-70
2021/06/09 03:42:58;;;;;;;7.82;7.03;;;;;;;;;;5010008;28;20076;-69
2021/06/09 03:45:26;;;;;;;8.07;7.30;;;;;;;;;;5011089;28;20457;-70
2021/06/09 03:47:54;;;;;;;8.73;7.82;;;;;;;;;;5007748;28;20034;-70
2021/06/09 03:50:22;;;;;;;8.55;7.70;;;;;;;;;;5011398;28;20033;-73
2021/06/09 03:52:48;;;;;;;9.65;7.72;;;;;;;;;;5009465;28;20298;-72
2021/06/09 03:55:16;;;;;;;9.20;8.35;;;;;;;;;;5012132;28;20107;-70
2021/06/09 03:57:43;;;;;;;8.73;7.82;;;;;;;;;;5008371;28;20456;-70
2021/06/09 04:00:09;;;;;;;8.15;7.30;;;;;;;;;;5011463;28;20499;-70
2021/06/09 04:02:36;;;;;;;11.73;7.93;;;;;;;;;;5010130;28;20034;-70
2021/06/09 04:05:03;;;;;;;8.90;8.00;;;;;;;;;;5008398;28;20033;-69
2021/06/09 04:07:29;;;;;;;8.52;7.68;;;;;;;;;;5008334;28;20046;-69
2021/06/09 04:09:57;;;;;;;9.95;8.18;;;;;;;;;;5009118;28;20112;-73
2021/06/09 04:12:24;;;;;;;9.77;7.75;;;;;;;;;;5009130;28;20667;-69
2021/06/09 04:14:51;;;;;;;8.05;7.25;;;;;;;;;;5008075;28;20038;-70
2021/06/09 04:17:25;;;;;;;9.93;7.63;;;;;;;;;;5011994;28;20050;-78
2021/06/09 04:19:52;;;;;;;8.73;7.90;;;;;;;;;;5009847;28;20033;-72
2021/06/09 04:22:18;;;;;;;14.80;8.25;;;;;;;;;;5009822;28;20030;-67
2021/06/09 04:24:44;;;;;;;9.07;8.13;;;;;;;;;;5011176;28;20034;-68
2021/06/09 04:27:13;;;;;;;9.30;8.25;;;;;;;;;;5013150;28;20428;-71
2021/06/09 04:29:40;;;;;;;10.85;8.15;;;;;;;;;;5014005;28;20057;-72
2021/06/09 04:32:07;;;;;;;9.95;8.57;;;;;;;;;;5015022;28;20026;-70
2021/06/09 04:34:49;;;;;;;8.45;7.65;;;;;;;;;;5021422;28;20077;-70
2021/06/09 04:37:17;;;;;;;8.43;7.63;;;;;;;;;;5013006;28;20037;-75
2021/06/09 04:39:43;;;;;;;8.80;7.72;;;;;;;;;;5009994;28;20396;-78
2021/06/09 04:42:10;;;;;;;8.70;7.15;;;;;;;;;;5017031;28;20038;-81
2021/06/09 04:44:37;;;;;;;10.80;8.10;;;;;;;;;;5017482;28;20068;-69
2021/06/09 04:47:04;;;;;;;10.00;8.98;;;;;;;;;;5011764;28;20033;-66
2021/06/09 04:49:34;;;;;;;8.52;7.72;;;;;;;;;;5012554;28;20030;-67
2021/06/09 04:52:00;;;;;;;8.85;7.30;;;;;;;;;;5012395;28;20034;-66
2021/06/09 04:54:27;;;;;;;13.95;8.50;;;;;;;;;;5010600;28;20247;-77
2021/06/09 04:56:53;;;;;;;10.02;8.43;;;;;;;;;;5013539;28;20041;-73
2021/06/09 04:59:19;;;;;;;11.77;8.00;;;;;;;;;;5004648;28;20049;-71
2021/06/09 05:01:45;;;;;;;9.95;7.28;;;;;;;;;;5011722;28;20037;-68
2021/06/09 05:04:12;;;;;;;8.90;7.38;;;;;;;;;;5003814;28;20103;-71
2021/06/09 05:06:38;;;;;;;8.57;7.82;;;;;;;;;;5005690;28;20053;-73
2021/06/09 05:09:05;;;;;;;12.07;8.57;;;;;;;;;;5005632;28;20050;-64
2021/06/09 05:11:37;;;;;;;7.85;7.05;;;;;;;;;;5008818;28;20073;-79
2021/06/09 05:14:05;;;;;;;8.35;7.10;;;;;;;;;;5012855;28;20037;-82
2021/06/09 05:16:34;;;;;;;8.40;6.97;;;;;;;;;;5013559;28;20040;-68
2021/06/09 05:19:00;;;;;;;7.70;7.10;;;;;;;;;;5011324;28;20033;-70
2021/06/09 05:21:29;;;;;;;7.10;6.47;;;;;;;;;;5009623;28;20072;-67
2021/06/09 05:23:56;;;;;;;7.20;6.50;;;;;;;;;;5005105;28;20022;-73
2021/06/09 05:26:23;;;;;;;7.25;6.55;;;;;;;;;;5010490;28;20100;-68
2021/06/09 05:28:51;;;;;;;8.30;6.30;;;;;;;;;;5012806;28;20036;-71
2021/06/09 05:31:18;;;;;;;6.93;6.32;;;;;;;;;;5009919;28;20045;-68
2021/06/09 05:33:44;;;;;;;9.20;7.32;;;;;;;;;;5012632;28;20034;-70
2021/06/09 05:36:12;;;;;;;7.75;7.05;;;;;;;;;;5014197;28;20034;-75
2021/06/09 05:38:39;;;;;;;7.80;7.07;;;;;;;;;;5012134;28;20041;-70
2021/06/09 05:41:05;;;;;;;17.00;7.35;;;;;;;;;;5009305;28;20032;-65
2021/06/09 05:43:31;;;;;;;13.73;6.95;;;;;;;;;;5009671;28;20045;-69
2021/06/09 05:46:00;;;;;;;7.40;6.60;;;;;;;;;;5010584;28;20024;-70
2021/06/09 05:48:26;;;;;;;7.95;7.25;;;;;;;;;;5013921;28;20424;-70
2021/06/09 05:50:54;;;;;;;7.82;6.80;;;;;;;;;;5012158;28;20055;-71
2021/06/09 05:53:24;;;;;;;9.05;6.68;;;;;;;;;;5009484;28;20783;-70
2021/06/09 05:55:50;;;;;;;7.32;6.63;;;;;;;;;;5012296;28;20029;-67
2021/06/09 05:58:17;;;;;;;7.30;6.63;;;;;;;;;;5011659;28;20041;-68
2021/06/09 06:00:44;;;;;;;7.35;6.68;;;;;;;;;;5009925;28;20029;-68
2021/06/09 06:03:11;;;;;;;7.82;7.13;;;;;;;;;;5011576;28;20522;-67
2021/06/09 06:05:37;;;;;;;7.95;7.15;;;;;;;;;;5011683;28;20040;-69
2021/06/09 06:08:04;;;;;;;7.63;6.78;;;;;;;;;;5011210;28;20061;-67
2021/06/09 06:10:30;;;;;;;7.32;6.63;;;;;;;;;;5010237;28;20029;-66
2021/06/09 06:12:56;;;;;;;12.25;7.07;;;;;;;;;;5011324;28;20492;-66
2021/06/09 06:15:24;;;;;;;8.88;7.00;;;;;;;;;;5011127;28;20652;-68
2021/06/09 06:17:50;;;;;;;8.65;7.72;;;;;;;;;;5011159;28;20039;-75
2021/06/09 06:20:20;;;;;;;7.95;6.68;;;;;;;;;;5016843;28;20061;-66
2021/06/09 06:22:48;;;;;;;8.80;5.75;;;;;;;;;;5013813;28;20121;-65
2021/06/09 06:25:18;;;;;;;10.23;5.47;;;;;;;;;;5011246;28;20033;-66
2021/06/09 06:27:48;;;;;;;11.45;5.63;;;;;;;;;;5013746;28;20140;-68
2021/06/09 06:30:15;;;;;;;7.95;5.72;;;;;;;;;;5013735;28;20060;-66
2021/06/09 06:32:41;;;;;;;9.63;5.72;;;;;;;;;;5012767;28;20108;-66
2021/06/09 06:35:08;;;;;;;9.85;5.95;;;;;;;;;;5009090;28;20056;-72
2021/06/09 06:37:34;;;;;;;7.82;5.85;;;;;;;;;;5006836;28;20050;-70
2021/06/09 06:40:00;;;;;;;7.30;6.57;;;;;;;;;;5008840;28;20017;-74
2021/06/09 06:42:26;;;;;;;15.63;7.15;;;;;;;;;;5009891;28;20060;-70
2021/06/09 06:44:52;;;;;;;14.30;6.80;;;;;;;;;;5009386;28;20430;-72
2021/06/09 06:47:19;;;;;;;11.48;6.90;;;;;;;;;;5006548;28;20092;-69
2021/06/09 06:49:45;;;;;;;13.00;6.63;;;;;;;;;;5012424;28;20496;-73
2021/06/09 06:52:12;;;;;;;17.63;6.95;;;;;;;;;;5010380;28;20117;-73
2021/06/09 06:54:38;;;;;;;8.70;6.32;;;;;;;;;;5012762;28;20884;-73
2021/06/09 06:57:04;;;;;;;13.02;7.05;;;;;;;;;;5014605;28;20096;-69
2021/06/09 06:59:31;;;;;;;10.77;6.47;;;;;;;;;;5013590;28;20104;-69
2021/06/09 07:01:57;;;;;;;13.52;6.20;;;;;;;;;;5014890;28;20022;-67
2021/06/09 07:04:24;;;;;;;12.88;5.90;;;;;;;;;;5014173;28;20048;-67
2021/06/09 07:06:50;;;;;;;12.75;6.10;;;;;;;;;;5014875;28;20036;-69
2021/06/09 07:09:17;;;;;;;7.68;5.57;;;;;;;;;;5014387;28;20463;-66
2021/06/09 07:11:44;;;;;;;10.10;6.35;;;;;;;;;;5016238;28;20029;-68
2021/06/09 07:14:11;;;;;;;11.30;5.95;;;;;;;;;;5015960;28;20026;-67
2021/06/09 07:16:38;;;;;;;10.70;4.97;;;;;;;;;;5013858;28;20037;-66
2021/06/09 07:19:04;;;;;;;15.02;5.32;;;;;;;;;;5014360;28;20037;-67
2021/06/09 07:21:30;;;;;;;8.05;4.95;;;;;;;;;;5015096;28;20029;-68
2021/06/09 07:23:56;;;;;;;5.32;4.57;;;;;;;;;;5013231;28;20029;-68
2021/06/09 07:26:23;;;;;;;10.27;4.90;;;;;;;;;;5012207;28;20021;-68
2021/06/09 07:28:55;;;;;;;7.80;5.07;;;;;;;;;;5015209;28;20026;-68
2021/06/09 07:31:32;;;;;;;5.45;4.15;;;;;;;;;;5016330;28;20073;-68
2021/06/09 07:33:58;;;;;;;7.80;4.85;;;;;;;;;;5014248;28;20169;-68
2021/06/09 07:36:26;;;;;;;6.25;5.07;;;;;;;;;;5014714;28;20041;-69
2021/06/09 07:38:56;;;;;;;6.32;4.35;;;;;;;;;;5013163;28;20046;-67
2021/06/09 07:41:26;;;;;;;4.95;4.38;;;;;;;;;;5011805;28;20099;-67
2021/06/09 07:43:52;;;;;;;5.53;3.85;;;;;;;;;;5013612;28;20123;-66
2021/06/09 07:46:21;;;;;;;6.72;4.20;;;;;;;;;;5014942;28;20487;-67
2021/06/09 07:48:48;;;;;;;5.38;4.22;;;;;;;;;;5011964;28;20100;-68
2021/06/09 07:51:15;;;;;;;5.53;4.03;;;;;;;;;;5014472;28;20030;-69
2021/06/09 07:53:41;;;;;;;4.97;4.45;;;;;;;;;;5009294;28;20917;-67
2021/06/09 07:56:11;;;;;;;5.13;4.15;;;;;;;;;;5013394;28;20057;-72
2021/06/09 07:58:38;;;;;;;6.68;4.32;;;;;;;;;;5015536;28;20128;-69
2021/06/09 08:01:04;;;;;;;5.65;4.50;;;;;;;;;;5017444;28;20033;-68
2021/06/09 08:03:31;;;;;;;5.18;4.32;;;;;;;;;;5015736;28;20025;-68
2021/06/09 08:05:57;;;;;;;4.57;4.18;;;;;;;;;;5007890;28;20507;-66
2021/06/09 08:08:24;;;;;;;8.60;4.63;;;;;;;;;;5005099;28;20057;-65
2021/06/09 08:10:50;;;;;;;4.93;4.30;;;;;;;;;;5006040;28;20059;-64
2021/06/09 08:13:16;;;;;;;7.57;4.82;;;;;;;;;;5006298;28;20041;-67
2021/06/09 08:15:42;;;;;;;6.13;5.28;;;;;;;;;;5010871;28;20116;-66
2021/06/09 08:18:09;;;;;;;5.38;4.22;;;;;;;;;;5008252;28;20136;-68
2021/06/09 08:20:36;;;;;;;5.57;4.97;;;;;;;;;;5006309;28;20026;-66
2021/06/09 08:23:03;;;;;;;5.22;3.88;;;;;;;;;;5004097;28;20088;-65
2021/06/09 08:25:29;;;;;;;80.05;15.00;;;;;;;;;;5007969;28;20029;-65
2021/06/09 08:27:55;;;;;;;57.63;9.25;;;;;;;;;;5006061;28;20037;-67
2021/06/09 08:30:22;;;;;;;43.42;9.23;;;;;;;;;;5009801;28;20029;-66
2021/06/09 08:32:48;;;;;;;39.83;7.88;;;;;;;;;;5008269;28;20033;-67
2021/06/09 08:35:15;;;;;;;15.50;6.53;;;;;;;;;;5007153;28;20073;-65
2021/06/09 08:37:41;;;;;;;17.55;6.35;;;;;;;;;;5004604;28;20499;-64
2021/06/09 08:40:08;;;;;;;15.23;5.85;;;;;;;;;;5008260;28;20480;-63
2021/06/09 08:42:35;;;;;;;17.10;5.45;;;;;;;;;;5003782;28;20113;-65
2021/06/09 08:45:02;;;;;;;20.45;4.85;;;;;;;;;;5008602;28;20057;-66
2021/06/09 08:47:29;;;;;;;20.92;6.78;;;;;;;;;;5009030;28;20657;-65
2021/06/09 08:49:55;;;;;;;10.77;5.60;;;;;;;;;;5007907;28;20065;-66
2021/06/09 08:52:22;;;;;;;29.45;7.28;;;;;;;;;;5011219;28;20033;-65
2021/06/09 08:54:49;;;;;;;21.75;5.55;;;;;;;;;;5010284;28;20029;-66
2021/06/09 08:57:16;;;;;;;16.90;5.43;;;;;;;;;;5009532;28;20030;-69
2021/06/09 08:59:44;;;;;;;8.55;5.82;;;;;;;;;;5007661;28;20397;-67
2021/06/09 09:02:10;;;;;;;13.25;6.13;;;;;;;;;;5012318;28;20021;-65
2021/06/09 09:04:37;;;;;;;10.63;5.68;;;;;;;;;;5012174;28;20067;-66
2021/06/09 09:07:04;;;;;;;16.30;6.15;;;;;;;;;;5009137;28;20026;-69
2021/06/09 09:09:30;;;;;;;10.43;5.35;;;;;;;;;;5013188;28;20033;-68
2021/06/09 09:11:57;;;;;;;13.57;4.97;;;;;;;;;;5014246;28;20124;-68
2021/06/09 09:14:23;;;;;;;15.52;4.82;;;;;;;;;;5015946;28;20136;-69
2021/06/09 09:17:02;;;;;;;10.32;4.75;;;;;;;;;;5014495;28;20061;-71
2021/06/09 09:19:29;;;;;;;11.25;5.03;;;;;;;;;;5015083;28;20484;-66
2021/06/09 09:21:55;;;;;;;13.98;5.57;;;;;;;;;;5014777;28;20444;-68
2021/06/09 09:24:36;;;;;;;16.40;5.07;;;;;;;;;;5013272;28;20482;-67
2021/06/09 09:27:02;;;;;;;12.32;5.03;;;;;;;;;;5012293;28;20027;-70
2021/06/09 09:29:28;;;;;;;16.42;5.30;;;;;;;;;;5012747;28;20100;-72
2021/06/09 09:32:12;;;;;;;11.75;4.63;;;;;;;;;;5009570;28;20034;-68
2021/06/09 09:34:43;;;;;;;12.32;4.93;;;;;;;;;;5011151;28;20029;-64
2021/06/09 09:37:09;;;;;;;9.90;5.53;;;;;;;;;;5012786;28;20041;-65
2021/06/09 09:39:36;;;;;;;10.38;4.57;;;;;;;;;;5013017;28;20380;-63
2021/06/09 09:42:21;;;;;;;7.82;5.30;;;;;;;;;;5006056;28;20041;-69
2021/06/09 09:44:47;;;;;;;15.70;5.85;;;;;;;;;;5008466;28;20029;-63
2021/06/09 09:47:18;;;;;;;11.68;5.97;;;;;;;;;;5011761;28;20026;-66
2021/06/09 09:49:44;;;;;;;9.50;5.07;;;;;;;;;;5011746;28;20485;-64
2021/06/09 09:52:11;;;;;;;60.67;10.88;;;;;;;;;;5010124;28;20458;-65
2021/06/09 09:54:38;;;;;;;14.68;5.35;;;;;;;;;;5009663;28;20025;-64
2021/06/09 09:57:06;;;;;;;13.68;5.40;;;;;;;;;;5010980;28;20096;-66
2021/06/09 09:59:32;;;;;;;9.43;5.30;;;;;;;;;;5011724;28;20087;-67
2021/06/09 10:02:01;;;;;;;8.80;4.78;;;;;;;;;;5011306;28;20036;-76
2021/06/09 10:04:34;;;;;;;7.22;4.85;;;;;;;;;;5007470;28;20668;-66
2021/06/09 10:07:01;;;;;;;9.45;4.90;;;;;;;;;;5006610;28;20030;-68
2021/06/09 10:09:27;;;;;;;12.02;4.57;;;;;;;;;;5010916;28;20037;-72
2021/06/09 10:12:01;;;;;;;6.72;4.55;;;;;;;;;;5007618;28;20025;-71
2021/06/09 10:14:30;;;;;;;9.93;4.50;;;;;;;;;;5011041;28;20283;-74
2021/06/09 10:16:57;;;;;;;6.93;4.95;;;;;;;;;;5011617;28;20551;-75
2021/06/09 10:19:24;;;;;;;7.30;4.70;;;;;;;;;;5009039;28;20455;-71
2021/06/09 10:21:55;;;;;;;9.95;4.50;;;;;;;;;;5012227;28;20106;-64
2021/06/09 10:24:24;;;;;;;12.43;4.55;;;;;;;;;;5010027;28;20447;-66
2021/06/09 10:26:54;;;;;;;7.22;3.72;;;;;;;;;;5010216;28;20052;-67
2021/06/09 10:29:22;;;;;;;8.27;4.43;;;;;;;;;;5010408;28;20038;-66
2021/06/09 10:31:50;;;;;;;6.50;4.28;;;;;;;;;;5009266;28;20087;-64
2021/06/09 10:34:16;;;;;;;5.97;4.47;;;;;;;;;;5013049;28;20092;-67
2021/06/09 10:36:47;;;;;;;4.72;3.85;;;;;;;;;;5010998;28;20496;-68
2021/06/09 10:39:14;;;;;;;4.85;3.60;;;;;;;;;;5017089;28;20033;-71
2021/06/09 10:41:44;;;;;;;5.65;3.55;;;;;;;;;;5013793;28;20215;-77
2021/06/09 10:44:11;;;;;;;6.65;3.90;;;;;;;;;;5013233;28;21246;-74
2021/06/09 10:46:44;;;;;;;7.13;4.75;;;;;;;;;;5017439;28;20030;-66
2021/06/09 10:49:13;;;;;;;5.78;5.28;;;;;;;;;;5015156;28;20033;-69
2021/06/09 10:51:39;;;;;;;11.40;5.57;;;;;;;;;;5012266;28;20133;-73
2021/06/09 10:54:10;;;;;;;5.68;5.05;;;;;;;;;;5012777;28;20061;-71
2021/06/09 10:56:38;;;;;;;6.22;5.07;;;;;;;;;;5014058;28;20148;-67
2021/06/09 10:59:04;;;;;;;8.35;4.90;;;;;;;;;;5019544;28;20037;-72
2021/06/09 11:01:30;;;;;;;14.10;5.28;;;;;;;;;;5014098;28;20030;-69
2021/06/09 11:03:58;;;;;;;7.40;4.75;;;;;;;;;;5008377;28;20029;-63
2021/06/09 11:06:42;;;;;;;10.48;4.50;;;;;;;;;;5014646;28;20440;-67
2021/06/09 11:09:19;;;;;;;8.60;5.07;;;;;;;;;;5014388;28;20045;-67
2021/06/09 11:11:46;;;;;;;10.50;5.38;;;;;;;;;;5011266;28;20034;-66
2021/06/09 11:14:24;;;;;;;5.20;4.15;;;;;;;;;;5016306;28;20036;-67
2021/06/09 11:16:52;;;;;;;6.53;3.97;;;;;;;;;;5015882;28;20030;-67
2021/06/09 11:19:42;;;;;;;4.93;3.85;;;;;;;;;;5014938;28;20389;-69
2021/06/09 11:22:16;;;;;;;10.27;4.28;;;;;;;;;;5012909;28;20121;-72
2021/06/09 11:25:02;;;;;;;7.32;3.67;;;;;;;;;;5016356;28;20388;-68
2021/06/09 11:27:28;;;;;;;7.43;4.32;;;;;;;;;;5016497;28;20985;-69
2021/06/09 11:29:54;;;;;;;6.55;3.38;;;;;;;;;;5013603;28;20064;-69
2021/06/09 11:32:22;;;;;;;4.95;3.35;;;;;;;;;;5014951;28;20188;-68
2021/06/09 11:34:55;;;;;;;3.90;3.60;;;;;;;;;;5015420;28;20052;-68
2021/06/09 11:37:21;;;;;;;5.00;3.65;;;;;;;;;;5015502;28;20037;-69
2021/06/09 11:40:01;;;;;;;5.75;3.15;;;;;;;;;;5015872;28;20036;-72
2021/06/09 11:42:27;;;;;;;3.35;3.05;;;;;;;;;;5015130;28;20042;-73
2021/06/09 11:44:53;;;;;;;6.47;3.65;;;;;;;;;;5017381;28;20038;-72
2021/06/09 11:47:21;;;;;;;6.22;3.72;;;;;;;;;;5015890;28;20484;-72
2021/06/09 11:49:48;;;;;;;4.30;3.13;;;;;;;;;;5016040;28;20030;-72
2021/06/09 11:52:14;;;;;;;11.05;3.67;;;;;;;;;;5016081;28;20397;-75
2021/06/09 11:54:41;;;;;;;4.70;3.58;;;;;;;;;;5017950;28;20033;-73
2021/06/09 11:57:17;;;;;;;10.38;3.67;;;;;;;;;;5016390;28;20034;-75
2021/06/09 11:59:44;;;;;;;9.02;4.00;;;;;;;;;;5018658;28;20048;-75
2021/06/09 12:02:30;;;;;;;8.98;3.40;;;;;;;;;;5016630;28;20037;-74
2021/06/09 12:04:57;;;;;;;10.07;3.90;;;;;;;;;;5017958;28;20025;-73
2021/06/09 12:07:30;;;;;;;9.15;3.47;;;;;;;;;;5014564;28;20116;-76
2021/06/09 12:09:59;;;;;;;4.13;3.28;;;;;;;;;;5018947;28;20458;-74
2021/06/09 12:12:28;;;;;;;9.07;3.50;;;;;;;;;;5015718;28;20586;-74
2021/06/09 12:14:56;;;;;;;5.45;2.92;;;;;;;;;;5017224;28;20127;-74
2021/06/09 12:17:26;;;;;;;8.55;3.42;;;;;;;;;;5018129;28;20079;-74
2021/06/09 12:20:13;;;;;;;3.40;3.10;;;;;;;;;;5012054;28;20870;-74
2021/06/09 12:22:43;;;;;;;3.80;3.13;;;;;;;;;;5016355;28;20030;-73
2021/06/09 12:25:10;;;;;;;3.63;2.53;;;;;;;;;;5016372;28;20041;-74
2021/06/09 12:27:37;;;;;;;6.47;3.47;;;;;;;;;;5016083;28;20017;-71
2021/06/09 12:30:07;;;;;;;4.38;2.95;;;;;;;;;;5016160;28;20752;-72
2021/06/09 12:32:34;;;;;;;3.17;2.88;;;;;;;;;;5018148;28;20068;-68
2021/06/09 12:35:04;;;;;;;3.47;3.13;;;;;;;;;;5017539;28;20397;-81
2021/06/09 12:37:31;;;;;;;4.05;2.83;;;;;;;;;;5017749;28;20471;-77
2021/06/09 12:39:59;;;;;;;4.82;2.72;;;;;;;;;;5021163;28;20192;-74
2021/06/09 12:42:25;;;;;;;5.03;2.70;;;;;;;;;;5009997;28;20037;-77
2021/06/09 12:44:52;;;;;;;3.60;2.90;;;;;;;;;;5014974;28;20148;-75
2021/06/09 12:47:27;;;;;;;3.92;2.60;;;;;;;;;;5013332;28;20826;-71
2021/06/09 12:50:12;;;;;;;8.30;2.50;;;;;;;;;;5012221;28;20536;-73
2021/06/09 12:52:38;;;;;;;5.07;2.55;;;;;;;;;;5014461;28;20032;-68
2021/06/09 12:55:09;;;;;;;7.95;2.97;;;;;;;;;;5017583;28;20025;-77
2021/06/09 12:57:36;;;;;;;5.25;2.33;;;;;;;;;;5023006;28;20038;-74
2021/06/09 13:00:22;;;;;;;5.20;2.65;;;;;;;;;;5016542;28;20091;-80
2021/06/09 13:02:48;;;;;;;3.10;2.20;;;;;;;;;;5020296;28;20095;-80
2021/06/09 13:05:15;;;;;;;6.47;2.75;;;;;;;;;;5017687;28;20029;-76
2021/06/09 13:07:41;;;;;;;4.22;2.55;;;;;;;;;;5015862;28;20063;-73
2021/06/09 13:10:08;;;;;;;5.18;2.22;;;;;;;;;;5014203;28;20072;-77
2021/06/09 13:12:34;;;;;;;5.35;2.10;;;;;;;;;;5016091;28;20025;-75
2021/06/09 13:15:00;;;;;;;9.77;2.83;;;;;;;;;;5016569;28;20443;-78
2021/06/09 13:17:26;;;;;;;8.43;3.08;;;;;;;;;;5015675;28;20083;-78
2021/06/09 13:20:10;;;;;;;6.82;1.95;;;;;;;;;;5014775;28;20396;-73
2021/06/09 13:22:44;;;;;;;4.45;2.40;;;;;;;;;;5012953;28;20025;-78
2021/06/09 13:25:10;;;;;;;5.00;3.20;;;;;;;;;;5016522;28;20026;-76
2021/06/09 13:27:36;;;;;;;8.27;2.97;;;;;;;;;;5014494;28;20061;-65
2021/06/09 13:30:04;;;;;;;5.15;2.45;;;;;;;;;;5011255;28;20572;-71
2021/06/09 13:32:31;;;;;;;6.05;2.53;;;;;;;;;;5018741;28;20049;-74
2021/06/09 13:35:03;;;;;;;176.80;22.23;;;;;;;;;;5017367;28;20057;-72
2021/06/09 13:37:37;;;;;;;31.73;4.28;;;;;;;;;;5015384;28;20041;-66
2021/06/09 13:40:06;;;;;;;17.83;3.35;;;;;;;;;;5018071;28;20432;-73
2021/06/09 13:42:34;;;;;;;15.13;3.33;;;;;;;;;;5010759;28;20128;-70
2021/06/09 13:45:08;;;;;;;7.88;2.95;;;;;;;;;;5015537;28;20033;-75
2021/06/09 13:47:35;;;;;;;11.57;3.97;;;;;;;;;;5018076;28;20033;-75
2021/06/09 13:50:22;;;;;;;11.40;3.20;;;;;;;;;;5020833;28;20146;-69
2021/06/09 13:52:48;;;;;;;16.17;4.03;;;;;;;;;;5018570;28;20485;-69
2021/06/09 13:55:17;;;;;;;8.57;3.65;;;;;;;;;;5018816;28;20065;-69
2021/06/09 13:57:47;;;;;;;10.50;3.90;;;;;;;;;;5017328;28;20045;-68
2021/06/09 14:00:14;;;;;;;17.40;3.45;;;;;;;;;;5016168;28;20485;-70
2021/06/09 14:02:42;;;;;;;7.35;3.33;;;;;;;;;;5018152;28;20040;-71
2021/06/09 14:05:14;;;;;;;8.85;3.38;;;;;;;;;;5015439;28;20044;-71
2021/06/09 14:07:41;;;;;;;8.73;2.97;;;;;;;;;;5014675;28;20099;-70
2021/06/09 14:10:08;;;;;;;11.82;3.58;;;;;;;;;;5013083;28;20511;-70
2021/06/09 14:12:38;;;;;;;6.43;3.85;;;;;;;;;;5017316;28;20063;-70
2021/06/09 14:15:15;;;;;;;10.30;3.60;;;;;;;;;;5018816;28;20037;-70
2021/06/09 14:17:41;;;;;;;9.20;3.50;;;;;;;;;;5018407;28;20038;-70
2021/06/09 14:20:09;;;;;;;7.10;3.65;;;;;;;;;;5018919;28;20025;-70
2021/06/09 14:22:46;;;;;;;6.35;2.72;;;;;;;;;;5018158;28;20581;-70
2021/06/09 14:25:12;;;;;;;6.43;3.53;;;;;;;;;;5017547;28;20022;-70
2021/06/09 14:27:48;;;;;;;8.88;2.88;;;;;;;;;;5017050;28;20029;-69
2021/06/09 14:30:14;;;;;;;5.53;3.40;;;;;;;;;;5017685;28;20033;-70
2021/06/09 14:33:06;;;;;;;4.78;3.13;;;;;;;;;;5023440;28;20520;-70
2021/06/09 14:35:33;;;;;;;5.53;3.00;;;;;;;;;;5020113;28;20532;-70
2021/06/09 14:38:00;;;;;;;5.07;2.95;;;;;;;;;;5018075;28;20141;-70
2021/06/09 14:40:27;;;;;;;10.50;3.33;;;;;;;;;;5018826;28;20059;-70
2021/06/09 14:43:03;;;;;;;3.90;2.65;;;;;;;;;;5016456;28;20487;-70
2021/06/09 14:45:30;;;;;;;4.93;3.85;;;;;;;;;;5018919;28;20698;-70